createdAt,value
2016-12-07T00:00:49.563Z,-1.46
2016-12-07T00:01:49.561Z,-1.46
2016-12-07T00:02:49.881Z,-1.54
2016-12-07T00:03:49.877Z,-1.43
2016-12-07T00:04:49.873Z,-1.46
2016-12-07T00:05:49.545Z,-1.48
2016-12-07T00:06:49.869Z,-1.48
2016-12-07T00:07:49.537Z,-1.43
2016-12-07T00:08:49.881Z,-1.42
2016-12-07T00:09:49.857Z,-1.46
2016-12-07T00:10:49.844Z,-1.48
2016-12-07T00:11:49.842Z,-1.51
2016-12-07T00:12:49.840Z,-1.53
2016-12-07T00:13:49.832Z,-1.54
2016-12-07T00:14:49.832Z,-1.48
2016-12-07T00:15:49.829Z,-1.46
2016-12-07T00:16:49.817Z,-1.53
2016-12-07T00:17:49.817Z,-1.5
2016-12-07T00:18:49.485Z,-1.51
2016-12-07T00:19:49.481Z,-1.53
2016-12-07T00:20:49.805Z,-1.5
2016-12-07T00:21:49.798Z,-1.57
2016-12-07T00:22:49.469Z,-1.64
2016-12-07T00:23:49.790Z,-1.56
2016-12-07T00:24:49.786Z,-1.66
2016-12-07T00:25:49.778Z,-1.6
2016-12-07T00:26:49.778Z,-1.68
2016-12-07T00:27:49.447Z,-1.6
2016-12-07T00:28:49.443Z,-1.64
2016-12-07T00:29:49.763Z,-1.66
2016-12-07T00:30:49.111Z,-1.63
2016-12-07T00:31:49.761Z,-1.63
2016-12-07T00:32:49.751Z,-1.61
2016-12-07T00:33:49.423Z,-1.64
2016-12-07T00:34:49.740Z,-1.66
2016-12-07T00:35:49.736Z,-1.68
2016-12-07T00:36:49.408Z,-1.74
2016-12-07T00:37:49.732Z,-1.74
2016-12-07T00:38:49.724Z,-1.72
2016-12-07T00:39:49.720Z,-1.69
2016-12-07T00:40:49.393Z,-1.75
2016-12-07T00:41:49.713Z,-1.79
2016-12-07T00:42:49.705Z,-1.84
2016-12-07T00:43:49.701Z,-1.87
2016-12-07T00:44:49.699Z,-1.97
2016-12-07T00:45:49.701Z,-1.92
2016-12-07T00:46:49.690Z,-1.97
2016-12-07T00:47:49.694Z,-2.05
2016-12-07T00:48:49.682Z,-2.02
2016-12-07T00:49:49.682Z,-2.04
2016-12-07T00:50:49.674Z,-2.13
2016-12-07T00:51:49.666Z,-2.13
2016-12-07T00:52:49.663Z,-2.13
2016-12-07T00:53:49.335Z,-2.2
2016-12-07T00:54:49.655Z,-2.23
2016-12-07T00:55:49.652Z,-2.32
2016-12-07T00:56:49.324Z,-2.26
2016-12-07T00:57:49.320Z,-2.33
2016-12-07T00:58:49.643Z,-2.45
2016-12-07T00:59:49.641Z,-2.55
2016-12-07T01:00:49.629Z,-2.55
2016-12-07T01:01:49.625Z,-2.63
2016-12-07T01:02:49.621Z,-2.65
2016-12-07T01:03:49.294Z,-2.69
2016-12-07T01:04:49.618Z,-2.7
2016-12-07T01:05:49.614Z,-2.86
2016-12-07T01:06:49.606Z,-2.87
2016-12-07T01:07:48.955Z,-2.76
2016-12-07T01:08:49.595Z,-2.87
2016-12-07T01:09:49.595Z,-2.98
2016-12-07T01:10:49.587Z,-3.04
2016-12-07T01:11:49.584Z,-3.08
2016-12-07T01:12:49.580Z,-2.99
2016-12-07T01:13:49.576Z,-3.04
2016-12-07T01:14:49.576Z,-3.09
2016-12-07T01:15:49.568Z,-3.07
2016-12-07T01:16:49.568Z,-3.23
2016-12-07T01:17:49.557Z,-3.22
2016-12-07T01:18:49.553Z,-3.2
2016-12-07T01:19:49.225Z,-3.27
2016-12-07T01:20:49.545Z,-3.29
2016-12-07T01:21:49.570Z,-3.3
2016-12-07T01:22:49.538Z,-3.3
2016-12-07T01:23:49.530Z,-3.33
2016-12-07T01:24:49.526Z,-3.32
2016-12-07T01:25:49.523Z,-3.33
2016-12-07T01:26:49.519Z,-3.29
2016-12-07T01:27:49.191Z,-3.36
2016-12-07T01:28:49.515Z,-3.32
2016-12-07T01:29:49.507Z,-3.27
2016-12-07T01:30:49.500Z,-3.3
2016-12-07T01:31:49.496Z,-3.32
2016-12-07T01:32:49.496Z,-3.27
2016-12-07T01:33:49.488Z,-3.33
2016-12-07T01:34:49.485Z,-3.27
2016-12-07T01:35:49.484Z,-3.38
2016-12-07T01:36:49.473Z,-3.29
2016-12-07T01:37:49.497Z,-3.43
2016-12-07T01:38:49.465Z,-3.46
2016-12-07T01:39:49.465Z,-3.46
2016-12-07T01:40:49.457Z,-3.53
2016-12-07T01:41:49.458Z,-3.47
2016-12-07T01:42:49.455Z,-3.59
2016-12-07T01:43:48.806Z,-3.53
2016-12-07T01:44:49.446Z,-3.53
2016-12-07T01:45:49.437Z,-3.51
2016-12-07T01:46:49.101Z,-3.53
2016-12-07T01:47:49.105Z,-3.58
2016-12-07T01:48:49.425Z,-3.62
2016-12-07T01:49:49.417Z,-3.71
2016-12-07T01:50:49.413Z,-3.69
2016-12-07T01:51:49.077Z,-3.75
2016-12-07T01:52:49.404Z,-3.78
2016-12-07T01:53:49.396Z,-3.69
2016-12-07T01:54:49.392Z,-3.8
2016-12-07T01:55:49.384Z,-3.77
2016-12-07T01:56:49.409Z,-3.71
2016-12-07T01:57:48.729Z,-3.74
2016-12-07T01:58:49.372Z,-3.83
2016-12-07T01:59:49.368Z,-3.8
2016-12-07T02:00:49.040Z,-3.81
2016-12-07T02:01:49.356Z,-3.83
2016-12-07T02:02:49.028Z,-3.91
2016-12-07T02:03:49.024Z,-3.98
2016-12-07T02:04:49.348Z,-3.99
2016-12-07T02:05:49.339Z,-3.91
2016-12-07T02:06:49.331Z,-4.02
2016-12-07T02:07:49.327Z,-4.13
2016-12-07T02:08:49.323Z,-4.05
2016-12-07T02:09:49.319Z,-4.04
2016-12-07T02:10:49.315Z,-4.04
2016-12-07T02:11:49.315Z,-4.06
2016-12-07T02:12:49.303Z,-4.14
2016-12-07T02:13:49.299Z,-4.2
2016-12-07T02:14:49.295Z,-4.12
2016-12-07T02:15:48.967Z,-4.16
2016-12-07T02:16:49.290Z,-4.2
2016-12-07T02:17:49.279Z,-4.23
2016-12-07T02:18:49.275Z,-4.31
2016-12-07T02:19:49.272Z,-4.19
2016-12-07T02:20:49.267Z,-4.2
2016-12-07T02:21:49.263Z,-4.24
2016-12-07T02:22:49.263Z,-4.22
2016-12-07T02:23:49.254Z,-4.22
2016-12-07T02:24:49.252Z,-4.13
2016-12-07T02:25:49.271Z,-4.33
2016-12-07T02:26:49.244Z,-4.26
2016-12-07T02:27:48.911Z,-4.23
2016-12-07T02:28:49.236Z,-4.23
2016-12-07T02:29:48.896Z,-4.3
2016-12-07T02:30:49.224Z,-4.33
2016-12-07T02:31:49.212Z,-4.3
2016-12-07T02:32:49.209Z,-4.23
2016-12-07T02:33:49.209Z,-4.3
2016-12-07T02:34:48.877Z,-4.27
2016-12-07T02:35:49.197Z,-4.19
2016-12-07T02:36:49.193Z,-4.33
2016-12-07T02:37:49.185Z,-4.35
2016-12-07T02:38:49.181Z,-4.2
2016-12-07T02:39:49.177Z,-4.19
2016-12-07T02:40:49.173Z,-4.37
2016-12-07T02:41:49.173Z,-4.26
2016-12-07T02:42:49.161Z,-4.26
2016-12-07T02:43:49.161Z,-4.34
2016-12-07T02:44:49.154Z,-4.27
2016-12-07T02:45:49.150Z,-4.27
2016-12-07T02:46:49.146Z,-4.3
2016-12-07T02:47:48.818Z,-4.27
2016-12-07T02:48:49.138Z,-4.35
2016-12-07T02:49:49.131Z,-4.35
2016-12-07T02:50:49.126Z,-4.34
2016-12-07T02:51:49.122Z,-4.24
2016-12-07T02:52:49.115Z,-4.41
2016-12-07T02:53:49.115Z,-4.4
2016-12-07T02:54:49.111Z,-4.34
2016-12-07T02:55:49.103Z,-4.31
2016-12-07T02:56:48.776Z,-4.26
2016-12-07T02:57:48.763Z,-4.45
2016-12-07T02:58:49.087Z,-4.37
2016-12-07T02:59:49.083Z,-4.38
2016-12-07T03:00:49.079Z,-4.31
2016-12-07T03:01:48.423Z,-4.26
2016-12-07T03:02:48.744Z,-4.3
2016-12-07T03:03:49.064Z,-4.24
2016-12-07T03:04:49.064Z,-4.22
2016-12-07T03:05:49.053Z,-4.34
2016-12-07T03:06:49.048Z,-4.3
2016-12-07T03:07:49.044Z,-4.33
2016-12-07T03:08:48.864Z,-4.41
2016-12-07T03:09:49.040Z,-4.34
2016-12-07T03:10:49.029Z,-4.38
2016-12-07T03:11:49.048Z,-4.37
2016-12-07T03:12:48.697Z,-4.37
2016-12-07T03:13:49.016Z,-4.34
2016-12-07T03:14:49.009Z,-4.38
2016-12-07T03:15:48.686Z,-4.44
2016-12-07T03:16:48.681Z,-4.38
2016-12-07T03:17:48.677Z,-4.4
2016-12-07T03:18:48.989Z,-4.38
2016-12-07T03:19:48.989Z,-4.4
2016-12-07T03:20:48.987Z,-4.51
2016-12-07T03:21:48.982Z,-4.45
2016-12-07T03:22:48.972Z,-4.41
2016-12-07T03:23:48.642Z,-4.59
2016-12-07T03:24:48.962Z,-4.52
2016-12-07T03:25:48.958Z,-4.56
2016-12-07T03:26:48.950Z,-4.58
2016-12-07T03:27:48.946Z,-4.55
2016-12-07T03:28:48.942Z,-4.56
2016-12-07T03:29:48.946Z,-4.56
2016-12-07T03:30:48.607Z,-4.55
2016-12-07T03:31:48.274Z,-4.55
2016-12-07T03:32:48.923Z,-4.69
2016-12-07T03:33:48.915Z,-4.53
2016-12-07T03:34:48.919Z,-4.53
2016-12-07T03:35:48.915Z,-4.65
2016-12-07T03:36:48.908Z,-4.67
2016-12-07T03:37:48.571Z,-4.52
2016-12-07T03:38:48.567Z,-4.59
2016-12-07T03:39:48.887Z,-4.58
2016-12-07T03:40:48.884Z,-4.59
2016-12-07T03:41:48.883Z,-4.55
2016-12-07T03:42:48.872Z,-4.49
2016-12-07T03:43:48.540Z,-4.44
2016-12-07T03:44:48.864Z,-4.44
2016-12-07T03:45:48.856Z,-4.27
2016-12-07T03:46:48.852Z,-4.27
2016-12-07T03:47:48.852Z,-4.26
2016-12-07T03:48:49.044Z,-4.2
2016-12-07T03:49:48.836Z,-4.08
2016-12-07T03:50:48.832Z,-4.04
2016-12-07T03:51:48.504Z,-3.96
2016-12-07T03:52:48.835Z,-3.9
2016-12-07T03:53:48.818Z,-3.85
2016-12-07T03:54:48.813Z,-3.75
2016-12-07T03:55:48.845Z,-3.71
2016-12-07T03:56:48.805Z,-3.59
2016-12-07T03:57:48.797Z,-3.55
2016-12-07T03:58:48.797Z,-3.5
2016-12-07T03:59:48.789Z,-3.48
2016-12-07T04:00:48.461Z,-3.48
2016-12-07T04:01:48.777Z,-3.5
2016-12-07T04:02:48.125Z,-3.53
2016-12-07T04:03:48.773Z,-3.56
2016-12-07T04:04:48.761Z,-3.64
2016-12-07T04:05:48.761Z,-3.62
2016-12-07T04:06:48.757Z,-3.61
2016-12-07T04:07:48.750Z,-3.66
2016-12-07T04:08:48.746Z,-3.65
2016-12-07T04:09:48.738Z,-3.64
2016-12-07T04:10:48.734Z,-3.59
2016-12-07T04:11:48.730Z,-3.64
2016-12-07T04:12:48.726Z,-3.62
2016-12-07T04:13:48.394Z,-3.53
2016-12-07T04:14:48.718Z,-3.62
2016-12-07T04:15:48.714Z,-3.53
2016-12-07T04:16:48.706Z,-3.48
2016-12-07T04:17:48.698Z,-3.51
2016-12-07T04:18:48.698Z,-3.53
2016-12-07T04:19:48.690Z,-3.43
2016-12-07T04:20:48.690Z,-3.43
2016-12-07T04:21:48.679Z,-3.37
2016-12-07T04:22:48.351Z,-3.3
2016-12-07T04:23:48.671Z,-3.2
2016-12-07T04:24:48.663Z,-3.2
2016-12-07T04:25:48.667Z,-3.11
2016-12-07T04:26:48.331Z,-3.08
2016-12-07T04:27:48.683Z,-3.04
2016-12-07T04:28:48.643Z,-3.01
2016-12-07T04:29:48.639Z,-2.98
2016-12-07T04:30:48.639Z,-3.02
2016-12-07T04:31:48.635Z,-2.98
2016-12-07T04:32:47.975Z,-2.87
2016-12-07T04:33:48.623Z,-2.86
2016-12-07T04:34:48.615Z,-2.89
2016-12-07T04:35:48.607Z,-2.81
2016-12-07T04:36:48.604Z,-2.86
2016-12-07T04:37:48.276Z,-2.89
2016-12-07T04:38:48.596Z,-2.84
2016-12-07T04:39:48.264Z,-2.87
2016-12-07T04:40:48.260Z,-2.84
2016-12-07T04:41:48.260Z,-2.72
2016-12-07T04:42:48.576Z,-2.84
2016-12-07T04:43:48.572Z,-2.84
2016-12-07T04:44:48.236Z,-2.86
2016-12-07T04:45:48.236Z,-2.84
2016-12-07T04:46:48.560Z,-2.75
2016-12-07T04:47:48.548Z,-2.75
2016-12-07T04:48:48.548Z,-2.81
2016-12-07T04:49:48.552Z,-2.73
2016-12-07T04:50:48.536Z,-2.68
2016-12-07T04:51:48.560Z,-2.75
2016-12-07T04:52:48.524Z,-2.66
2016-12-07T04:53:48.548Z,-2.55
2016-12-07T04:54:48.192Z,-2.66
2016-12-07T04:55:48.510Z,-2.57
2016-12-07T04:56:48.504Z,-2.65
2016-12-07T04:57:48.500Z,-2.68
2016-12-07T04:58:48.326Z,-2.58
2016-12-07T04:59:48.496Z,-2.63
2016-12-07T05:00:48.160Z,-2.52
2016-12-07T05:01:48.485Z,-2.54
2016-12-07T05:02:48.476Z,-2.47
2016-12-07T05:03:48.472Z,-2.5
2016-12-07T05:04:48.466Z,-2.54
2016-12-07T05:05:48.140Z,-2.52
2016-12-07T05:06:48.456Z,-2.54
2016-12-07T05:07:48.449Z,-2.39
2016-12-07T05:08:48.445Z,-2.32
2016-12-07T05:09:48.441Z,-2.29
2016-12-07T05:10:48.437Z,-2.33
2016-12-07T05:11:48.429Z,-2.25
2016-12-07T05:12:48.101Z,-2.17
2016-12-07T05:13:48.097Z,-2.13
2016-12-07T05:14:48.417Z,-2.02
2016-12-07T05:15:48.425Z,-1.96
2016-12-07T05:16:48.404Z,-1.94
2016-12-07T05:17:48.401Z,-1.94
2016-12-07T05:18:48.400Z,-1.99
2016-12-07T05:19:48.388Z,-1.9
2016-12-07T05:20:48.388Z,-1.92
2016-12-07T05:21:48.384Z,-1.92
2016-12-07T05:22:48.380Z,-1.86
2016-12-07T05:23:48.368Z,-1.9
2016-12-07T05:24:48.040Z,-1.86
2016-12-07T05:25:48.364Z,-1.75
2016-12-07T05:26:48.356Z,-1.71
2016-12-07T05:27:48.352Z,-1.6
2016-12-07T05:28:48.344Z,-1.6
2016-12-07T05:29:48.348Z,-1.63
2016-12-07T05:30:48.336Z,-1.51
2016-12-07T05:31:48.008Z,-1.53
2016-12-07T05:32:48.000Z,-1.45
2016-12-07T05:33:48.324Z,-1.51
2016-12-07T05:34:47.988Z,-1.4
2016-12-07T05:35:48.312Z,-1.4
2016-12-07T05:36:48.308Z,-1.35
2016-12-07T05:37:48.304Z,-1.32
2016-12-07T05:38:47.972Z,-1.35
2016-12-07T05:39:48.291Z,-1.33
2016-12-07T05:40:48.287Z,-1.39
2016-12-07T05:41:47.960Z,-1.36
2016-12-07T05:42:48.279Z,-1.29
2016-12-07T05:43:47.948Z,-1.3
2016-12-07T05:44:48.269Z,-1.22
2016-12-07T05:45:48.260Z,-1.22
2016-12-07T05:46:48.267Z,-1.3
2016-12-07T05:47:48.252Z,-1.24
2016-12-07T05:48:48.248Z,-1.3
2016-12-07T05:49:48.244Z,-1.21
2016-12-07T05:50:48.248Z,-1.21
2016-12-07T05:51:48.232Z,-1.22
2016-12-07T05:52:47.904Z,-1.06
2016-12-07T05:53:48.228Z,-1.11
2016-12-07T05:54:48.224Z,-1.11
2016-12-07T05:55:48.216Z,-1
2016-12-07T05:56:47.884Z,-1.06
2016-12-07T05:57:47.880Z,-0.94
2016-12-07T05:58:47.872Z,-0.94
2016-12-07T05:59:47.876Z,-0.93
2016-12-07T06:00:48.189Z,-0.96
2016-12-07T06:01:47.896Z,-1.03
2016-12-07T06:02:47.860Z,-0.87
2016-12-07T06:03:48.176Z,-0.94
2016-12-07T06:04:48.172Z,-0.96
2016-12-07T06:05:47.848Z,-0.93
2016-12-07T06:06:48.168Z,-0.93
2016-12-07T06:07:47.832Z,-1.03
2016-12-07T06:08:47.860Z,-1.03
2016-12-07T06:09:48.147Z,-0.96
2016-12-07T06:10:48.144Z,-0.89
2016-12-07T06:11:48.136Z,-0.99
2016-12-07T06:12:48.133Z,-1.03
2016-12-07T06:13:48.132Z,-0.94
2016-12-07T06:14:47.800Z,-1.04
2016-12-07T06:15:48.119Z,-1
2016-12-07T06:16:48.111Z,-1.07
2016-12-07T06:17:48.107Z,-1.14
2016-12-07T06:18:48.103Z,-1.09
2016-12-07T06:19:47.775Z,-1.01
2016-12-07T06:20:48.095Z,-1.03
2016-12-07T06:21:48.115Z,-1.06
2016-12-07T06:22:48.083Z,-1.06
2016-12-07T06:23:48.101Z,-1.14
2016-12-07T06:24:48.075Z,-1.14
2016-12-07T06:25:48.071Z,-1.06
2016-12-07T06:26:48.063Z,-1.09
2016-12-07T06:27:48.063Z,-1.03
2016-12-07T06:28:48.059Z,-1.04
2016-12-07T06:29:48.051Z,-0.94
2016-12-07T06:30:48.051Z,-0.94
2016-12-07T06:31:48.043Z,-0.94
2016-12-07T06:32:48.035Z,-1.03
2016-12-07T06:33:48.035Z,-0.85
2016-12-07T06:34:48.026Z,-1.04
2016-12-07T06:35:48.023Z,-0.93
2016-12-07T06:36:47.695Z,-1
2016-12-07T06:37:48.011Z,-1.03
2016-12-07T06:38:48.011Z,-1.01
2016-12-07T06:39:48.002Z,-1.04
2016-12-07T06:40:47.994Z,-1.03
2016-12-07T06:41:47.666Z,-1.01
2016-12-07T06:42:47.986Z,-1.03
2016-12-07T06:43:47.658Z,-1.03
2016-12-07T06:44:47.978Z,-0.91
2016-12-07T06:45:47.971Z,-0.82
2016-12-07T06:46:48.002Z,-0.8
2016-12-07T06:47:47.962Z,-0.85
2016-12-07T06:48:47.638Z,-0.82
2016-12-07T06:49:47.955Z,-0.8
2016-12-07T06:50:47.946Z,-0.74
2016-12-07T06:51:47.947Z,-0.78
2016-12-07T06:52:47.939Z,-0.85
2016-12-07T06:53:47.939Z,-0.74
2016-12-07T06:54:47.927Z,-0.85
2016-12-07T06:55:47.922Z,-0.77
2016-12-07T06:56:47.594Z,-0.75
2016-12-07T06:57:47.915Z,-0.7
2016-12-07T06:58:47.906Z,-0.7
2016-12-07T06:59:47.903Z,-0.75
2016-12-07T07:00:47.903Z,-0.67
2016-12-07T07:01:47.894Z,-0.62
2016-12-07T07:02:47.890Z,-0.63
2016-12-07T07:03:47.890Z,-0.54
2016-12-07T07:04:47.878Z,-0.6
2016-12-07T07:05:47.546Z,-0.6
2016-12-07T07:06:47.547Z,-0.46
2016-12-07T07:07:47.542Z,-0.48
2016-12-07T07:08:47.539Z,-0.42
2016-12-07T07:09:47.859Z,-0.35
2016-12-07T07:10:47.850Z,-0.3
2016-12-07T07:11:47.854Z,-0.36
2016-12-07T07:12:47.846Z,-0.33
2016-12-07T07:13:47.514Z,-0.35
2016-12-07T07:14:48.031Z,-0.44
2016-12-07T07:15:47.827Z,-0.42
2016-12-07T07:16:47.499Z,-0.35
2016-12-07T07:17:47.816Z,-0.33
2016-12-07T07:18:47.815Z,-0.33
2016-12-07T07:19:47.807Z,-0.27
2016-12-07T07:20:47.479Z,-0.26
2016-12-07T07:21:47.475Z,-0.3
2016-12-07T07:22:47.791Z,-0.35
2016-12-07T07:23:47.787Z,-0.21
2016-12-07T07:24:47.311Z,-0.13
2016-12-07T07:25:47.779Z,-0.12
2016-12-07T07:26:47.451Z,-0.1
2016-12-07T07:27:47.771Z,-0.12
2016-12-07T07:28:47.767Z,-0.05
2016-12-07T07:29:47.763Z,-0.05
2016-12-07T07:30:47.755Z,-0.05
2016-12-07T07:31:47.431Z,-0.07
2016-12-07T07:32:47.427Z,0
2016-12-07T07:33:47.779Z,-0.06
2016-12-07T07:34:47.739Z,0.01
2016-12-07T07:35:47.731Z,0.02
2016-12-07T07:36:47.727Z,0
2016-12-07T07:37:47.723Z,0.18
2016-12-07T07:38:47.719Z,0.12
2016-12-07T07:39:47.711Z,0.19
2016-12-07T07:40:47.712Z,0.18
2016-12-07T07:41:47.707Z,0.2
2016-12-07T07:42:47.699Z,0.2
2016-12-07T07:43:47.700Z,0.2
2016-12-07T07:44:47.691Z,0.27
2016-12-07T07:45:47.684Z,0.33
2016-12-07T07:46:47.684Z,0.36
2016-12-07T07:47:47.351Z,0.4
2016-12-07T07:48:47.672Z,0.37
2016-12-07T07:49:47.344Z,0.31
2016-12-07T07:50:47.340Z,0.34
2016-12-07T07:51:47.660Z,0.3
2016-12-07T07:52:47.684Z,0.34
2016-12-07T07:53:47.648Z,0.3
2016-12-07T07:54:47.644Z,0.29
2016-12-07T07:55:47.645Z,0.34
2016-12-07T07:56:47.640Z,0.3
2016-12-07T07:57:47.632Z,0.33
2016-12-07T07:58:47.628Z,0.4
2016-12-07T07:59:47.624Z,0.39
2016-12-07T08:00:47.616Z,0.34
2016-12-07T08:01:47.644Z,0.39
2016-12-07T08:02:47.285Z,0.42
2016-12-07T08:03:47.280Z,0.47
2016-12-07T08:04:47.748Z,0.52
2016-12-07T08:05:47.600Z,0.48
2016-12-07T08:06:47.270Z,0.58
2016-12-07T08:07:47.584Z,0.61
2016-12-07T08:08:47.589Z,0.59
2016-12-07T08:09:47.881Z,0.66
2016-12-07T08:10:47.244Z,0.71
2016-12-07T08:11:47.569Z,0.67
2016-12-07T08:12:47.569Z,0.71
2016-12-07T08:13:47.561Z,0.74
2016-12-07T08:14:47.565Z,0.95
2016-12-07T08:15:47.549Z,1.02
2016-12-07T08:16:47.549Z,0.92
2016-12-07T08:17:47.541Z,0.99
2016-12-07T08:18:47.545Z,1.04
2016-12-07T08:19:47.537Z,1.06
2016-12-07T08:20:47.557Z,1.03
2016-12-07T08:21:47.525Z,1.12
2016-12-07T08:22:47.530Z,1.18
2016-12-07T08:23:46.865Z,1.39
2016-12-07T08:24:47.513Z,1.5
2016-12-07T08:25:47.509Z,1.57
2016-12-07T08:26:47.502Z,1.56
2016-12-07T08:27:47.501Z,1.58
2016-12-07T08:28:47.493Z,1.48
2016-12-07T08:29:47.489Z,1.48
2016-12-07T08:30:47.485Z,1.46
2016-12-07T08:31:47.486Z,1.38
2016-12-07T08:32:47.482Z,1.27
2016-12-07T08:33:47.473Z,1.22
2016-12-07T08:34:47.470Z,1.07
2016-12-07T08:35:47.146Z,1.07
2016-12-07T08:36:47.138Z,1.1
2016-12-07T08:37:47.454Z,1.14
2016-12-07T08:38:47.130Z,1.14
2016-12-07T08:39:47.454Z,1.18
2016-12-07T08:40:47.442Z,1.24
2016-12-07T08:41:47.442Z,1.24
2016-12-07T08:42:46.782Z,1.36
2016-12-07T08:43:47.114Z,1.32
2016-12-07T08:44:47.430Z,1.32
2016-12-07T08:45:47.422Z,1.31
2016-12-07T08:46:47.418Z,1.32
2016-12-07T08:47:47.414Z,1.36
2016-12-07T08:48:47.414Z,1.34
2016-12-07T08:49:47.406Z,1.34
2016-12-07T08:50:47.078Z,1.32
2016-12-07T08:51:47.398Z,1.3
2016-12-07T08:52:47.394Z,1.27
2016-12-07T08:53:47.391Z,1.22
2016-12-07T08:54:47.386Z,1.21
2016-12-07T08:55:47.387Z,1.2
2016-12-07T08:56:47.383Z,1.22
2016-12-07T08:57:47.379Z,1.21
2016-12-07T08:58:47.375Z,1.12
2016-12-07T08:59:47.046Z,1.12
2016-12-07T09:00:47.363Z,1.03
2016-12-07T09:01:47.039Z,1.12
2016-12-07T09:02:47.359Z,1.04
2016-12-07T09:03:47.367Z,1
2016-12-07T09:04:47.023Z,0.89
2016-12-07T09:05:47.343Z,0.91
2016-12-07T09:06:47.339Z,1
2016-12-07T09:07:47.335Z,1.03
2016-12-07T09:08:47.007Z,1.22
2016-12-07T09:09:47.327Z,1.32
2016-12-07T09:10:47.323Z,1.48
2016-12-07T09:11:47.323Z,1.56
2016-12-07T09:12:47.315Z,1.67
2016-12-07T09:13:47.312Z,1.57
2016-12-07T09:14:47.315Z,1.71
2016-12-07T09:15:47.303Z,1.85
2016-12-07T09:16:46.976Z,2.04
2016-12-07T09:17:47.296Z,2.07
2016-12-07T09:18:46.968Z,2.22
2016-12-07T09:19:47.292Z,2.21
2016-12-07T09:20:47.284Z,2.25
2016-12-07T09:21:47.284Z,2.37
2016-12-07T09:22:46.952Z,2.36
2016-12-07T09:23:47.272Z,2.44
2016-12-07T09:24:47.276Z,2.47
2016-12-07T09:25:46.940Z,2.61
2016-12-07T09:26:46.942Z,2.64
2016-12-07T09:27:47.256Z,2.65
2016-12-07T09:28:46.928Z,2.9
2016-12-07T09:29:47.248Z,2.91
2016-12-07T09:30:46.924Z,3.03
2016-12-07T09:31:47.249Z,3.12
2016-12-07T09:32:47.236Z,3.12
2016-12-07T09:33:47.233Z,3.49
2016-12-07T09:34:47.229Z,3.34
2016-12-07T09:35:47.224Z,3.49
2016-12-07T09:36:47.221Z,3.53
2016-12-07T09:37:47.221Z,3.52
2016-12-07T09:38:46.893Z,3.49
2016-12-07T09:39:47.209Z,3.59
2016-12-07T09:40:47.209Z,3.53
2016-12-07T09:41:47.205Z,3.64
2016-12-07T09:42:46.877Z,3.61
2016-12-07T09:43:47.197Z,3.66
2016-12-07T09:44:47.198Z,3.68
2016-12-07T09:45:46.874Z,3.76
2016-12-07T09:46:47.186Z,3.74
2016-12-07T09:47:47.183Z,3.78
2016-12-07T09:48:47.178Z,3.74
2016-12-07T09:49:47.173Z,3.64
2016-12-07T09:50:47.169Z,3.64
2016-12-07T09:51:47.169Z,3.61
2016-12-07T09:52:46.837Z,3.58
2016-12-07T09:53:46.829Z,3.59
2016-12-07T09:54:47.153Z,3.61
2016-12-07T09:55:47.149Z,3.48
2016-12-07T09:56:47.154Z,3.53
2016-12-07T09:57:47.146Z,3.49
2016-12-07T09:58:46.817Z,3.55
2016-12-07T09:59:47.340Z,3.53
2016-12-07T10:00:46.810Z,3.41
2016-12-07T10:01:47.134Z,3.48
2016-12-07T10:02:46.801Z,3.53
2016-12-07T10:03:46.798Z,3.56
2016-12-07T10:04:47.124Z,3.68
2016-12-07T10:05:47.118Z,3.64
2016-12-07T10:06:47.110Z,3.73
2016-12-07T10:07:47.114Z,3.78
2016-12-07T10:08:47.126Z,3.73
2016-12-07T10:09:46.778Z,3.84
2016-12-07T10:10:46.807Z,3.78
2016-12-07T10:11:47.098Z,3.82
2016-12-07T10:12:46.766Z,3.88
2016-12-07T10:13:47.086Z,3.95
2016-12-07T10:14:47.086Z,3.99
2016-12-07T10:15:47.078Z,4.06
2016-12-07T10:16:46.426Z,4.21
2016-12-07T10:17:47.070Z,4.16
2016-12-07T10:18:47.075Z,4.16
2016-12-07T10:19:46.742Z,4.21
2016-12-07T10:20:46.739Z,4.2
2016-12-07T10:21:46.739Z,4.18
2016-12-07T10:22:47.055Z,4.16
2016-12-07T10:23:47.051Z,4.12
2016-12-07T10:24:47.051Z,4.16
2016-12-07T10:25:47.043Z,4.13
2016-12-07T10:26:47.043Z,4.2
2016-12-07T10:27:47.035Z,4.24
2016-12-07T10:28:47.035Z,4.22
2016-12-07T10:29:46.707Z,4.36
2016-12-07T10:30:47.027Z,4.42
2016-12-07T10:31:47.024Z,4.38
2016-12-07T10:32:47.023Z,4.36
2016-12-07T10:33:47.020Z,4.38
2016-12-07T10:34:46.695Z,4.53
2016-12-07T10:35:47.012Z,4.49
2016-12-07T10:36:47.012Z,4.58
2016-12-07T10:37:47.004Z,4.57
2016-12-07T10:38:47.000Z,4.64
2016-12-07T10:39:46.676Z,4.67
2016-12-07T10:40:46.674Z,4.6
2016-12-07T10:41:46.996Z,4.66
2016-12-07T10:42:46.988Z,4.64
2016-12-07T10:43:46.660Z,4.66
2016-12-07T10:44:46.984Z,4.7
2016-12-07T10:45:46.652Z,4.58
2016-12-07T10:46:46.972Z,4.66
2016-12-07T10:47:46.648Z,4.61
2016-12-07T10:48:46.968Z,4.74
2016-12-07T10:49:46.636Z,4.68
2016-12-07T10:50:46.964Z,4.74
2016-12-07T10:51:46.956Z,4.78
2016-12-07T10:52:46.629Z,4.83
2016-12-07T10:53:46.656Z,4.9
2016-12-07T10:54:47.249Z,4.95
2016-12-07T10:55:46.945Z,5.01
2016-12-07T10:56:46.617Z,5.04
2016-12-07T10:57:46.937Z,5.13
2016-12-07T10:58:46.609Z,5.25
2016-12-07T10:59:46.612Z,5.25
2016-12-07T11:00:46.933Z,5.31
2016-12-07T11:01:46.933Z,5.36
2016-12-07T11:02:46.925Z,5.33
2016-12-07T11:03:46.593Z,5.29
2016-12-07T11:04:46.919Z,5.36
2016-12-07T11:05:46.913Z,5.26
2016-12-07T11:06:46.909Z,5.26
2016-12-07T11:07:46.905Z,5.23
2016-12-07T11:08:46.908Z,5.33
2016-12-07T11:09:46.905Z,5.25
2016-12-07T11:10:46.897Z,5.23
2016-12-07T11:11:46.893Z,5.12
2016-12-07T11:12:46.889Z,5.01
2016-12-07T11:13:46.886Z,4.97
2016-12-07T11:14:46.916Z,4.95
2016-12-07T11:15:46.894Z,5.07
2016-12-07T11:16:46.858Z,4.95
2016-12-07T11:19:44.938Z,5.02
2016-12-07T11:20:44.934Z,5.13
2016-12-07T11:21:44.961Z,5.22
2016-12-07T11:22:44.930Z,5.29
2016-12-07T11:23:44.926Z,5.28
2016-12-07T11:24:44.598Z,5.23
2016-12-07T11:25:44.918Z,5.18
2016-12-07T11:26:44.915Z,5.22
2016-12-07T11:27:44.915Z,5.2
2016-12-07T11:28:44.591Z,5.15
2016-12-07T11:29:44.906Z,5.12
2016-12-07T11:30:44.903Z,5.23
2016-12-07T11:31:44.903Z,5.25
2016-12-07T11:32:44.899Z,5.33
2016-12-07T11:33:44.895Z,5.41
2016-12-07T11:34:44.891Z,5.34
2016-12-07T11:35:44.892Z,5.34
2016-12-07T11:36:44.887Z,5.38
2016-12-07T11:37:44.885Z,5.44
2016-12-07T11:38:44.879Z,5.36
2016-12-07T11:39:44.879Z,5.25
2016-12-07T11:40:44.879Z,5.37
2016-12-07T11:41:44.871Z,5.44
2016-12-07T11:42:44.868Z,5.37
2016-12-07T11:43:44.864Z,5.46
2016-12-07T11:44:44.868Z,5.52
2016-12-07T11:45:44.868Z,5.61
2016-12-07T11:46:50.461Z,5.59
2016-12-07T11:50:02.401Z,5.47
2016-12-07T11:51:02.069Z,5.54
2016-12-07T11:52:02.408Z,5.47
2016-12-07T11:53:02.092Z,5.36
2016-12-07T11:54:02.409Z,5.43
2016-12-07T11:55:02.556Z,5.55
2016-12-07T11:56:02.408Z,5.59
2016-12-07T11:57:02.077Z,5.62
2016-12-07T11:58:02.068Z,5.7
2016-12-07T11:59:02.401Z,5.64
2016-12-07T12:00:02.392Z,5.65
2016-12-07T12:01:02.388Z,5.59
2016-12-07T12:02:02.392Z,5.65
2016-12-07T12:03:02.384Z,5.59
2016-12-07T12:04:02.376Z,5.62
2016-12-07T12:05:02.036Z,5.7
2016-12-07T12:06:02.369Z,5.67
2016-12-07T12:07:02.376Z,5.74
2016-12-07T12:08:02.033Z,5.77
2016-12-07T12:09:02.036Z,5.76
2016-12-07T12:10:02.033Z,5.74
2016-12-07T12:11:02.037Z,5.8
2016-12-07T12:12:02.029Z,5.8
2016-12-07T12:13:02.013Z,5.81
2016-12-07T12:14:02.365Z,5.8
2016-12-07T12:15:01.689Z,5.76
2016-12-07T12:16:02.009Z,5.73
2016-12-07T12:17:02.013Z,5.7
2016-12-07T12:18:02.337Z,5.65
2016-12-07T12:19:02.325Z,5.74
2016-12-07T12:20:02.013Z,5.72
2016-12-07T12:21:02.325Z,5.64
2016-12-07T12:22:01.997Z,5.64
2016-12-07T12:23:02.321Z,5.62
2016-12-07T12:24:02.021Z,5.49
2016-12-07T12:25:02.001Z,5.54
2016-12-07T12:26:01.657Z,5.61
2016-12-07T12:27:02.313Z,5.7
2016-12-07T12:28:01.657Z,5.69
2016-12-07T12:29:02.313Z,5.67
2016-12-07T12:30:02.129Z,5.64
2016-12-07T12:31:02.311Z,5.54
2016-12-07T12:32:01.973Z,5.51
2016-12-07T12:33:01.969Z,5.54
2016-12-07T12:34:02.293Z,5.46
2016-12-07T12:35:02.285Z,5.41
2016-12-07T12:36:01.629Z,5.4
2016-12-07T12:37:02.285Z,5.47
2016-12-07T12:38:02.289Z,5.37
2016-12-07T12:39:02.277Z,5.28
2016-12-07T12:40:02.273Z,5.19
2016-12-07T12:41:01.945Z,5.1
2016-12-07T12:42:01.938Z,4.98
2016-12-07T12:43:02.269Z,4.89
2016-12-07T12:44:01.937Z,4.9
2016-12-07T12:45:01.933Z,4.82
2016-12-07T12:46:01.933Z,4.82
2016-12-07T12:47:01.930Z,4.78
2016-12-07T12:48:01.602Z,4.79
2016-12-07T12:49:01.934Z,4.89
2016-12-07T12:50:02.250Z,4.94
2016-12-07T12:51:01.917Z,5
2016-12-07T12:52:02.242Z,5.07
2016-12-07T12:53:02.238Z,5.04
2016-12-07T12:54:01.913Z,5.01
2016-12-07T12:55:01.905Z,5.08
2016-12-07T12:56:01.908Z,5.13
2016-12-07T12:57:02.234Z,5.12
2016-12-07T12:58:01.910Z,5.13
2016-12-07T12:59:02.230Z,5.01
2016-12-07T13:00:01.890Z,4.95
2016-12-07T13:01:01.894Z,4.9
2016-12-07T13:02:01.882Z,4.89
2016-12-07T13:03:01.891Z,4.9
2016-12-07T13:04:02.210Z,4.92
2016-12-07T13:05:02.214Z,4.89
2016-12-07T13:06:02.205Z,4.89
2016-12-07T13:07:01.882Z,4.79
2016-12-07T13:08:01.866Z,4.71
2016-12-07T13:09:02.194Z,4.76
2016-12-07T13:10:01.546Z,4.75
2016-12-07T13:11:01.864Z,4.71